sensor_id;sensor_type;location;lat;lon;timestamp;pressure;altitude;pressure_sealevel;temperature;humidity
40954;BME280;26686;50.130;8.710;2023-03-23T00:03:41;99303.03;;;15.15;46.71
40954;BME280;26686;50.130;8.710;2023-03-23T00:08:41;99289.53;;;15.09;46.94
40954;BME280;26686;50.130;8.710;2023-03-23T00:13:46;99294.69;;;15.10;46.93
40954;BME280;26686;50.130;8.710;2023-03-23T00:18:49;99297.03;;;15.13;47.11
40954;BME280;26686;50.130;8.710;2023-03-23T00:23:52;99293.03;;;15.09;47.42
40954;BME280;26686;50.130;8.710;2023-03-23T00:28:52;99292.19;;;15.09;47.47
40954;BME280;26686;50.130;8.710;2023-03-23T00:33:53;99291.00;;;15.11;47.33
40954;BME280;26686;50.130;8.710;2023-03-23T00:38:53;99288.31;;;15.11;47.35
40954;BME280;26686;50.130;8.710;2023-03-23T00:43:55;99285.63;;;15.11;47.42
40954;BME280;26686;50.130;8.710;2023-03-23T00:48:56;99282.31;;;15.09;47.28
40954;BME280;26686;50.130;8.710;2023-03-23T00:53:57;99274.25;;;15.09;47.60
40954;BME280;26686;50.130;8.710;2023-03-23T00:58:57;99263.22;;;15.04;47.72
40954;BME280;26686;50.130;8.710;2023-03-23T01:03:58;99262.88;;;15.07;47.77
40954;BME280;26686;50.130;8.710;2023-03-23T01:09:02;99269.09;;;15.08;47.94
40954;BME280;26686;50.130;8.710;2023-03-23T01:14:04;99270.91;;;15.07;47.92
40954;BME280;26686;50.130;8.710;2023-03-23T01:19:05;99257.50;;;15.07;48.00
40954;BME280;26686;50.130;8.710;2023-03-23T01:24:06;99261.75;;;15.01;48.35
40954;BME280;26686;50.130;8.710;2023-03-23T01:29:06;99257.38;;;15.00;48.73
40954;BME280;26686;50.130;8.710;2023-03-23T01:34:07;99250.19;;;15.01;48.95
40954;BME280;26686;50.130;8.710;2023-03-23T01:39:08;99259.25;;;15.00;49.12
40954;BME280;26686;50.130;8.710;2023-03-23T01:49:33;99241.19;;;14.94;49.13
40954;BME280;26686;50.130;8.710;2023-03-23T01:54:35;99233.19;;;14.85;49.43
40954;BME280;26686;50.130;8.710;2023-03-23T01:59:37;99242.66;;;14.96;49.25
40954;BME280;26686;50.130;8.710;2023-03-23T02:04:39;99245.69;;;14.93;49.22
40954;BME280;26686;50.130;8.710;2023-03-23T02:09:42;99239.88;;;14.90;49.08
40954;BME280;26686;50.130;8.710;2023-03-23T02:14:42;99243.56;;;14.89;49.56
40954;BME280;26686;50.130;8.710;2023-03-23T02:30:42;99245.59;;;14.87;49.05
40954;BME280;26686;50.130;8.710;2023-03-23T02:35:52;99228.84;;;14.84;49.31
40954;BME280;26686;50.130;8.710;2023-03-23T02:40:56;99230.69;;;14.84;49.92
40954;BME280;26686;50.130;8.710;2023-03-23T02:46:04;99231.50;;;14.84;50.46
40954;BME280;26686;50.130;8.710;2023-03-23T02:51:07;99246.66;;;14.77;53.27
40954;BME280;26686;50.130;8.710;2023-03-23T02:56:10;99231.59;;;14.68;54.85
40954;BME280;26686;50.130;8.710;2023-03-23T03:07:16;99226.16;;;14.45;57.57
40954;BME280;26686;50.130;8.710;2023-03-23T03:12:00;99221.34;;;14.32;57.94
40954;BME280;26686;50.130;8.710;2023-03-23T03:17:08;99205.63;;;14.29;59.09
40954;BME280;26686;50.130;8.710;2023-03-23T03:22:14;99220.34;;;14.41;59.67
40954;BME280;26686;50.130;8.710;2023-03-23T03:27:18;99205.09;;;14.42;60.00
40954;BME280;26686;50.130;8.710;2023-03-23T03:32:22;99206.94;;;14.41;60.58
40954;BME280;26686;50.130;8.710;2023-03-23T03:37:25;99205.44;;;14.39;60.54
40954;BME280;26686;50.130;8.710;2023-03-23T03:42:25;99206.09;;;14.41;61.21
40954;BME280;26686;50.130;8.710;2023-03-23T03:47:26;99215.31;;;14.38;61.80
40954;BME280;26686;50.130;8.710;2023-03-23T03:52:26;99227.91;;;14.29;62.26
40954;BME280;26686;50.130;8.710;2023-03-23T03:57:27;99222.38;;;14.23;62.33
40954;BME280;26686;50.130;8.710;2023-03-23T04:02:27;99236.47;;;14.17;63.06
40954;BME280;26686;50.130;8.710;2023-03-23T04:07:28;99226.44;;;14.10;62.57
40954;BME280;26686;50.130;8.710;2023-03-23T04:12:29;99230.81;;;14.11;62.56
40954;BME280;26686;50.130;8.710;2023-03-23T04:17:30;99212.75;;;14.05;62.13
40954;BME280;26686;50.130;8.710;2023-03-23T04:22:30;99224.41;;;14.12;62.15
40954;BME280;26686;50.130;8.710;2023-03-23T04:27:30;99228.59;;;14.15;61.68
40954;BME280;26686;50.130;8.710;2023-03-23T04:32:31;99229.44;;;14.15;62.66
40954;BME280;26686;50.130;8.710;2023-03-23T04:37:32;99229.25;;;14.17;62.86
40954;BME280;26686;50.130;8.710;2023-03-23T04:42:32;99237.47;;;14.15;63.18
40954;BME280;26686;50.130;8.710;2023-03-23T04:47:35;99240.66;;;14.11;63.21
40954;BME280;26686;50.130;8.710;2023-03-23T04:52:40;99246.16;;;14.09;64.07
40954;BME280;26686;50.130;8.710;2023-03-23T04:57:46;99246.69;;;14.05;64.28
40954;BME280;26686;50.130;8.710;2023-03-23T05:02:47;99229.63;;;13.97;63.32
40954;BME280;26686;50.130;8.710;2023-03-23T05:07:52;99240.19;;;13.99;63.64
40954;BME280;26686;50.130;8.710;2023-03-23T05:12:53;99237.19;;;13.94;63.19
40954;BME280;26686;50.130;8.710;2023-03-23T05:17:54;99236.53;;;13.92;64.02
40954;BME280;26686;50.130;8.710;2023-03-23T05:22:55;99241.88;;;13.92;63.94
40954;BME280;26686;50.130;8.710;2023-03-23T05:27:58;99243.53;;;13.93;64.30
40954;BME280;26686;50.130;8.710;2023-03-23T05:32:59;99238.19;;;13.93;64.71
40954;BME280;26686;50.130;8.710;2023-03-23T05:38:00;99247.56;;;13.89;65.35
40954;BME280;26686;50.130;8.710;2023-03-23T05:43:02;99239.19;;;13.84;65.03
40954;BME280;26686;50.130;8.710;2023-03-23T05:48:05;99247.41;;;13.82;65.84
40954;BME280;26686;50.130;8.710;2023-03-23T05:53:06;99240.41;;;13.81;66.14
40954;BME280;26686;50.130;8.710;2023-03-23T05:58:06;99241.91;;;13.75;66.63
40954;BME280;26686;50.130;8.710;2023-03-23T06:03:07;99257.59;;;13.70;66.69
40954;BME280;26686;50.130;8.710;2023-03-23T06:08:08;99268.47;;;13.69;67.38
40954;BME280;26686;50.130;8.710;2023-03-23T06:13:08;99277.69;;;13.66;67.56
40954;BME280;26686;50.130;8.710;2023-03-23T06:18:09;99273.00;;;13.68;67.41
40954;BME280;26686;50.130;8.710;2023-03-23T06:23:09;99292.38;;;13.70;68.10
40954;BME280;26686;50.130;8.710;2023-03-23T06:28:10;99283.84;;;13.67;68.48
40954;BME280;26686;50.130;8.710;2023-03-23T06:33:12;99281.84;;;13.69;68.88
40954;BME280;26686;50.130;8.710;2023-03-23T06:38:13;99281.66;;;13.70;69.36
40954;BME280;26686;50.130;8.710;2023-03-23T06:43:14;99286.19;;;13.70;68.96
40954;BME280;26686;50.130;8.710;2023-03-23T06:48:15;99289.69;;;13.78;68.80
40954;BME280;26686;50.130;8.710;2023-03-23T06:53:15;99303.41;;;13.75;69.15
40954;BME280;26686;50.130;8.710;2023-03-23T06:58:17;99303.59;;;13.74;69.82
40954;BME280;26686;50.130;8.710;2023-03-23T07:03:18;99296.41;;;13.83;69.79
40954;BME280;26686;50.130;8.710;2023-03-23T07:08:19;99283.69;;;13.85;69.80
40954;BME280;26686;50.130;8.710;2023-03-23T07:13:19;99289.53;;;13.80;70.44
40954;BME280;26686;50.130;8.710;2023-03-23T07:18:20;99297.03;;;13.76;71.02
40954;BME280;26686;50.130;8.710;2023-03-23T07:23:21;99314.28;;;13.74;72.38
40954;BME280;26686;50.130;8.710;2023-03-23T07:28:22;99316.44;;;13.78;73.22
40954;BME280;26686;50.130;8.710;2023-03-23T07:33:22;99316.28;;;13.80;73.56
40954;BME280;26686;50.130;8.710;2023-03-23T07:38:24;99316.28;;;13.80;73.52
40954;BME280;26686;50.130;8.710;2023-03-23T07:43:27;99319.09;;;13.70;73.69
40954;BME280;26686;50.130;8.710;2023-03-23T07:48:28;99326.97;;;13.72;74.21
40954;BME280;26686;50.130;8.710;2023-03-23T07:53:28;99321.63;;;13.72;74.99
40954;BME280;26686;50.130;8.710;2023-03-23T07:58:29;99326.13;;;13.71;75.42
40954;BME280;26686;50.130;8.710;2023-03-23T08:03:30;99334.31;;;13.70;75.51
40954;BME280;26686;50.130;8.710;2023-03-23T08:08:31;99342.84;;;13.65;74.84
40954;BME280;26686;50.130;8.710;2023-03-23T08:13:33;99346.69;;;13.54;75.13
40954;BME280;26686;50.130;8.710;2023-03-23T08:18:36;99353.53;;;13.57;75.27
40954;BME280;26686;50.130;8.710;2023-03-23T08:23:37;99357.53;;;13.61;74.67
40954;BME280;26686;50.130;8.710;2023-03-23T08:28:37;99354.03;;;13.60;74.56
40954;BME280;26686;50.130;8.710;2023-03-23T08:33:42;99356.84;;;13.51;74.46
40954;BME280;26686;50.130;8.710;2023-03-23T08:38:43;99363.56;;;13.55;74.85
40954;BME280;26686;50.130;8.710;2023-03-23T08:43:46;99365.41;;;13.63;74.22
40954;BME280;26686;50.130;8.710;2023-03-23T08:48:48;99391.81;;;13.66;74.01
40954;BME280;26686;50.130;8.710;2023-03-23T08:53:50;99379.97;;;13.68;73.96
40954;BME280;26686;50.130;8.710;2023-03-23T08:58:50;99367.41;;;13.60;74.06
40954;BME280;26686;50.130;8.710;2023-03-23T09:03:51;99381.63;;;13.69;73.47
40954;BME280;26686;50.130;8.710;2023-03-23T09:08:53;99366.09;;;13.73;73.98
40954;BME280;26686;50.130;8.710;2023-03-23T09:13:53;99365.25;;;13.81;73.67
40954;BME280;26686;50.130;8.710;2023-03-23T09:18:54;99363.25;;;13.91;72.96
40954;BME280;26686;50.130;8.710;2023-03-23T09:23:56;99366.28;;;14.04;74.91
40954;BME280;26686;50.130;8.710;2023-03-23T09:28:58;99369.28;;;14.18;71.61
40954;BME280;26686;50.130;8.710;2023-03-23T09:33:59;99375.13;;;14.29;70.81
40954;BME280;26686;50.130;8.710;2023-03-23T09:39:01;99370.06;;;14.59;69.51
40954;BME280;26686;50.130;8.710;2023-03-23T09:49:40;99395.06;;;15.39;65.41
40954;BME280;26686;50.130;8.710;2023-03-23T09:54:46;99396.16;;;15.84;62.31
40954;BME280;26686;50.130;8.710;2023-03-23T09:59:58;99392.81;;;16.05;61.07
40954;BME280;26686;50.130;8.710;2023-03-23T10:15:53;99395.34;;;15.52;66.13
40954;BME280;26686;50.130;8.710;2023-03-23T10:20:59;99418.22;;;15.32;67.51
40954;BME280;26686;50.130;8.710;2023-03-23T10:31:38;99424.03;;;15.04;69.32
40954;BME280;26686;50.130;8.710;2023-03-23T10:36:56;99429.44;;;14.88;67.89
40954;BME280;26686;50.130;8.710;2023-03-23T10:41:59;99438.50;;;14.87;67.17
40954;BME280;26686;50.130;8.710;2023-03-23T10:47:08;99421.38;;;14.88;66.98
40954;BME280;26686;50.130;8.710;2023-03-23T10:52:29;99423.19;;;15.03;67.42
40954;BME280;26686;50.130;8.710;2023-03-23T10:57:31;99420.34;;;15.05;67.33
40954;BME280;26686;50.130;8.710;2023-03-23T11:02:45;99418.03;;;14.94;65.92
40954;BME280;26686;50.130;8.710;2023-03-23T11:08:11;99423.41;;;14.94;65.63
40954;BME280;26686;50.130;8.710;2023-03-23T11:13:15;99420.78;;;14.77;67.18
40954;BME280;26686;50.130;8.710;2023-03-23T11:18:41;99422.94;;;14.82;68.34
40954;BME280;26686;50.130;8.710;2023-03-23T11:23:49;99423.47;;;14.61;68.40
40954;BME280;26686;50.130;8.710;2023-03-23T11:28:55;99436.34;;;14.74;67.74
40954;BME280;26686;50.130;8.710;2023-03-23T11:34:00;99419.34;;;14.98;66.49
40954;BME280;26686;50.130;8.710;2023-03-23T11:39:03;99424.31;;;15.57;64.24
40954;BME280;26686;50.130;8.710;2023-03-23T11:44:10;99418.16;;;17.39;56.63
40954;BME280;26686;50.130;8.710;2023-03-23T11:54:50;99416.19;;;15.97;61.12
40954;BME280;26686;50.130;8.710;2023-03-23T11:59:52;99431.47;;;15.65;62.58
40954;BME280;26686;50.130;8.710;2023-03-23T12:05:27;99416.19;;;15.65;62.43
40954;BME280;26686;50.130;8.710;2023-03-23T12:26:26;99395.09;;;16.32;60.43
40954;BME280;26686;50.130;8.710;2023-03-23T12:31:48;99397.25;;;16.36;61.14
40954;BME280;26686;50.130;8.710;2023-03-23T12:37:14;99366.63;;;16.75;59.04
40954;BME280;26686;50.130;8.710;2023-03-23T12:48:02;99352.00;;;17.88;55.23
40954;BME280;26686;50.130;8.710;2023-03-23T12:53:22;99356.69;;;17.57;55.33
40954;BME280;26686;50.130;8.710;2023-03-23T12:58:29;99360.97;;;16.85;57.39
40954;BME280;26686;50.130;8.710;2023-03-23T13:03:56;99356.97;;;16.81;57.56
40954;BME280;26686;50.130;8.710;2023-03-23T13:09:05;99364.66;;;16.69;57.71
40954;BME280;26686;50.130;8.710;2023-03-23T13:19:39;99350.72;;;17.40;55.44
40954;BME280;26686;50.130;8.710;2023-03-23T13:25:14;99354.19;;;17.56;54.07
40954;BME280;26686;50.130;8.710;2023-03-23T13:30:20;99340.78;;;18.55;51.62
40954;BME280;26686;50.130;8.710;2023-03-23T13:35:23;99341.09;;;20.18;47.63
40954;BME280;26686;50.130;8.710;2023-03-23T13:40:26;99346.25;;;21.25;45.12
40954;BME280;26686;50.130;8.710;2023-03-23T13:50:30;99355.38;;;18.75;50.82
40954;BME280;26686;50.130;8.710;2023-03-23T13:55:41;99354.00;;;17.79;53.07
40954;BME280;26686;50.130;8.710;2023-03-23T14:00:46;99352.69;;;17.31;55.32
40954;BME280;26686;50.130;8.710;2023-03-23T14:06:11;99346.16;;;16.74;56.79
40954;BME280;26686;50.130;8.710;2023-03-23T14:11:20;99356.84;;;16.30;58.38
40954;BME280;26686;50.130;8.710;2023-03-23T14:16:24;99354.09;;;16.00;60.40
40954;BME280;26686;50.130;8.710;2023-03-23T14:21:40;99371.00;;;15.85;61.06
40954;BME280;26686;50.130;8.710;2023-03-23T14:26:41;99370.34;;;15.83;61.22
40954;BME280;26686;50.130;8.710;2023-03-23T14:31:45;99363.06;;;15.92;60.90
40954;BME280;26686;50.130;8.710;2023-03-23T14:36:48;99349.91;;;15.97;60.23
40954;BME280;26686;50.130;8.710;2023-03-23T14:41:50;99350.59;;;15.99;60.51
40954;BME280;26686;50.130;8.710;2023-03-23T14:46:54;99368.88;;;15.72;61.89
40954;BME280;26686;50.130;8.710;2023-03-23T14:51:55;99357.06;;;15.59;62.96
40954;BME280;26686;50.130;8.710;2023-03-23T14:56:56;99358.72;;;15.60;63.09
40954;BME280;26686;50.130;8.710;2023-03-23T15:01:56;99353.84;;;15.63;63.07
40954;BME280;26686;50.130;8.710;2023-03-23T15:07:03;99353.59;;;15.81;61.80
40954;BME280;26686;50.130;8.710;2023-03-23T15:12:22;99341.50;;;15.85;60.75
40954;BME280;26686;50.130;8.710;2023-03-23T15:17:26;99338.34;;;15.73;60.94
40954;BME280;26686;50.130;8.710;2023-03-23T15:22:30;99353.03;;;15.63;60.73
40954;BME280;26686;50.130;8.710;2023-03-23T15:27:42;99354.22;;;15.60;60.50
40954;BME280;26686;50.130;8.710;2023-03-23T15:32:45;99338.94;;;15.61;60.02
40954;BME280;26686;50.130;8.710;2023-03-23T15:37:57;99346.00;;;15.62;59.75
40954;BME280;26686;50.130;8.710;2023-03-23T15:43:19;99347.31;;;15.66;59.90
40954;BME280;26686;50.130;8.710;2023-03-23T15:48:20;99341.84;;;15.82;60.51
40954;BME280;26686;50.130;8.710;2023-03-23T15:53:34;99350.53;;;15.84;61.35
40954;BME280;26686;50.130;8.710;2023-03-23T15:58:38;99355.78;;;15.78;62.64
40954;BME280;26686;50.130;8.710;2023-03-23T16:03:53;99363.75;;;15.63;63.13
40954;BME280;26686;50.130;8.710;2023-03-23T16:08:56;99352.53;;;15.59;64.04
40954;BME280;26686;50.130;8.710;2023-03-23T16:13:58;99361.75;;;15.56;64.16
40954;BME280;26686;50.130;8.710;2023-03-23T16:19:02;99361.47;;;15.51;64.91
40954;BME280;26686;50.130;8.710;2023-03-23T16:24:04;99367.22;;;15.40;66.10
40954;BME280;26686;50.130;8.710;2023-03-23T16:29:11;99363.59;;;15.33;66.82
40954;BME280;26686;50.130;8.710;2023-03-23T16:34:29;99357.25;;;15.26;68.59
40954;BME280;26686;50.130;8.710;2023-03-23T16:39:34;99360.69;;;15.11;69.88
40954;BME280;26686;50.130;8.710;2023-03-23T16:44:36;99355.25;;;14.88;70.95
40954;BME280;26686;50.130;8.710;2023-03-23T16:49:37;99360.75;;;14.95;70.64
40954;BME280;26686;50.130;8.710;2023-03-23T16:54:38;99355.78;;;14.83;72.18
40954;BME280;26686;50.130;8.710;2023-03-23T16:59:40;99357.00;;;14.73;72.35
40954;BME280;26686;50.130;8.710;2023-03-23T17:04:43;99363.66;;;14.77;72.55
40954;BME280;26686;50.130;8.710;2023-03-23T17:09:45;99348.78;;;14.66;72.41
40954;BME280;26686;50.130;8.710;2023-03-23T17:14:47;99354.47;;;14.71;72.25
40954;BME280;26686;50.130;8.710;2023-03-23T17:19:49;99341.09;;;14.63;72.89
40954;BME280;26686;50.130;8.710;2023-03-23T17:24:51;99344.44;;;14.57;72.95
40954;BME280;26686;50.130;8.710;2023-03-23T17:29:52;99345.44;;;14.56;72.41
40954;BME280;26686;50.130;8.710;2023-03-23T17:34:54;99341.75;;;14.57;71.82
40954;BME280;26686;50.130;8.710;2023-03-23T17:39:56;99338.44;;;14.55;71.32
40954;BME280;26686;50.130;8.710;2023-03-23T17:44:57;99337.09;;;14.50;70.57
40954;BME280;26686;50.130;8.710;2023-03-23T17:50:02;99346.94;;;14.50;70.67
40954;BME280;26686;50.130;8.710;2023-03-23T17:55:12;99354.69;;;14.45;70.51
40954;BME280;26686;50.130;8.710;2023-03-23T18:00:16;99364.56;;;14.44;70.20
40954;BME280;26686;50.130;8.710;2023-03-23T18:05:17;99370.09;;;14.43;70.22
40954;BME280;26686;50.130;8.710;2023-03-23T18:10:19;99370.75;;;14.45;70.08
40954;BME280;26686;50.130;8.710;2023-03-23T18:15:20;99367.41;;;14.43;70.10
40954;BME280;26686;50.130;8.710;2023-03-23T18:20:29;99369.22;;;14.42;70.19
40954;BME280;26686;50.130;8.710;2023-03-23T18:25:32;99368.88;;;14.45;70.33
40954;BME280;26686;50.130;8.710;2023-03-23T18:30:36;99364.88;;;14.49;70.54
40954;BME280;26686;50.130;8.710;2023-03-23T18:35:38;99360.16;;;14.52;70.00
40954;BME280;26686;50.130;8.710;2023-03-23T18:40:42;99356.19;;;14.47;69.86
40954;BME280;26686;50.130;8.710;2023-03-23T18:45:52;99356.53;;;14.44;70.07
40954;BME280;26686;50.130;8.710;2023-03-23T18:50:57;99354.19;;;14.41;70.03
40954;BME280;26686;50.130;8.710;2023-03-23T18:56:05;99354.03;;;14.35;70.31
40954;BME280;26686;50.130;8.710;2023-03-23T19:01:10;99364.72;;;14.35;69.99
40954;BME280;26686;50.130;8.710;2023-03-23T19:06:23;99370.59;;;14.38;70.15
40954;BME280;26686;50.130;8.710;2023-03-23T19:11:25;99374.28;;;14.37;70.28
40954;BME280;26686;50.130;8.710;2023-03-23T19:16:29;99360.72;;;14.39;70.19
40954;BME280;26686;50.130;8.710;2023-03-23T19:21:31;99363.22;;;14.40;70.29
40954;BME280;26686;50.130;8.710;2023-03-23T19:26:35;99356.34;;;14.46;70.14
40954;BME280;26686;50.130;8.710;2023-03-23T19:31:38;99350.16;;;14.45;70.28
40954;BME280;26686;50.130;8.710;2023-03-23T19:36:40;99355.69;;;14.52;70.23
40954;BME280;26686;50.130;8.710;2023-03-23T19:41:42;99343.63;;;14.48;70.35
40954;BME280;26686;50.130;8.710;2023-03-23T19:46:47;99330.59;;;14.45;71.02
40954;BME280;26686;50.130;8.710;2023-03-23T19:51:51;99333.91;;;14.47;72.26
40954;BME280;26686;50.130;8.710;2023-03-23T19:57:10;99324.06;;;14.47;72.67
40954;BME280;26686;50.130;8.710;2023-03-23T20:02:12;99321.72;;;14.44;73.46
40954;BME280;26686;50.130;8.710;2023-03-23T20:07:14;99318.38;;;14.42;74.32
40954;BME280;26686;50.130;8.710;2023-03-23T20:12:16;99313.00;;;14.42;73.94
40954;BME280;26686;50.130;8.710;2023-03-23T20:17:18;99309.69;;;14.40;74.11
40954;BME280;26686;50.130;8.710;2023-03-23T20:22:19;99304.97;;;14.50;74.08
40954;BME280;26686;50.130;8.710;2023-03-23T20:27:21;99302.63;;;14.47;74.05
40954;BME280;26686;50.130;8.710;2023-03-23T20:32:22;99300.09;;;14.54;74.18
40954;BME280;26686;50.130;8.710;2023-03-23T20:37:23;99300.94;;;14.55;74.41
40954;BME280;26686;50.130;8.710;2023-03-23T20:42:26;99284.88;;;14.55;74.10
40954;BME280;26686;50.130;8.710;2023-03-23T20:47:29;99273.50;;;14.53;74.15
40954;BME280;26686;50.130;8.710;2023-03-23T20:52:31;99272.13;;;14.57;74.35
40954;BME280;26686;50.130;8.710;2023-03-23T20:57:34;99270.16;;;14.50;74.65
40954;BME280;26686;50.130;8.710;2023-03-23T21:02:39;99271.03;;;14.43;75.67
40954;BME280;26686;50.130;8.710;2023-03-23T21:07:42;99254.81;;;14.36;76.49
40954;BME280;26686;50.130;8.710;2023-03-23T21:12:44;99255.16;;;14.33;77.04
40954;BME280;26686;50.130;8.710;2023-03-23T21:17:46;99252.81;;;14.38;77.13
40954;BME280;26686;50.130;8.710;2023-03-23T21:22:48;99251.13;;;14.37;76.94
40954;BME280;26686;50.130;8.710;2023-03-23T21:27:50;99240.59;;;14.36;77.31
40954;BME280;26686;50.130;8.710;2023-03-23T21:32:55;99226.34;;;14.35;77.17
40954;BME280;26686;50.130;8.710;2023-03-23T21:37:57;99226.53;;;14.33;76.84
40954;BME280;26686;50.130;8.710;2023-03-23T21:42:59;99221.34;;;14.32;76.53
40954;BME280;26686;50.130;8.710;2023-03-23T21:48:01;99209.69;;;14.25;75.97
40954;BME280;26686;50.130;8.710;2023-03-23T21:53:04;99209.34;;;14.28;75.17
40954;BME280;26686;50.130;8.710;2023-03-23T21:58:06;99202.31;;;14.27;74.07
40954;BME280;26686;50.130;8.710;2023-03-23T22:03:10;99203.97;;;14.28;73.32
40954;BME280;26686;50.130;8.710;2023-03-23T22:08:12;99193.94;;;14.30;72.34
40954;BME280;26686;50.130;8.710;2023-03-23T22:13:13;99196.44;;;14.31;72.21
40954;BME280;26686;50.130;8.710;2023-03-23T22:18:19;99191.91;;;14.32;71.79
40954;BME280;26686;50.130;8.710;2023-03-23T22:23:21;99178.50;;;14.32;71.42
40954;BME280;26686;50.130;8.710;2023-03-23T22:28:23;99184.72;;;14.32;71.32
40954;BME280;26686;50.130;8.710;2023-03-23T22:33:32;99184.22;;;14.29;71.09
40954;BME280;26686;50.130;8.710;2023-03-23T22:38:35;99183.03;;;14.31;70.69
40954;BME280;26686;50.130;8.710;2023-03-23T22:43:38;99180.19;;;14.33;70.70
40954;BME280;26686;50.130;8.710;2023-03-23T22:48:40;99182.22;;;14.31;70.36
40954;BME280;26686;50.130;8.710;2023-03-23T22:53:44;99180.53;;;14.30;70.84
40954;BME280;26686;50.130;8.710;2023-03-23T22:58:48;99177.50;;;14.33;71.18
40954;BME280;26686;50.130;8.710;2023-03-23T23:03:52;99165.31;;;14.30;71.88
40954;BME280;26686;50.130;8.710;2023-03-23T23:08:53;99142.25;;;14.29;72.94
40954;BME280;26686;50.130;8.710;2023-03-23T23:13:57;99152.44;;;14.26;73.38
40954;BME280;26686;50.130;8.710;2023-03-23T23:18:59;99150.66;;;14.18;74.92
40954;BME280;26686;50.130;8.710;2023-03-23T23:24:00;99148.97;;;14.17;76.06
40954;BME280;26686;50.130;8.710;2023-03-23T23:29:03;99150.81;;;14.17;76.78
40954;BME280;26686;50.130;8.710;2023-03-23T23:34:05;99160.53;;;14.09;78.59
40954;BME280;26686;50.130;8.710;2023-03-23T23:39:07;99135.84;;;13.99;80.05
40954;BME280;26686;50.130;8.710;2023-03-23T23:44:09;99136.81;;;14.06;80.06
40954;BME280;26686;50.130;8.710;2023-03-23T23:49:11;99128.66;;;14.00;81.53
40954;BME280;26686;50.130;8.710;2023-03-23T23:54:13;99129.00;;;13.96;81.73
40954;BME280;26686;50.130;8.710;2023-03-23T23:59:15;99125.00;;;13.92;82.75
